Terminal Aerodrome Forecast
Issued by NWS

Current Version | Previous Version | Text Only | Print | Product List | Glossary On
Versions: 1 2 3 4 5 6 7 8 9 10 11 12 13 14 15 16 17 18 19 20 21 22 23 24 25 26
347
FTUS42 KCAE 251138
TAFDNL
TAF
KDNL 251138Z 2512/2612 20007KT P6SM SCT006 BKN040 BKN080
      WS020/21030KT
      TEMPO 2512/2514 BKN006 BKN012
     FM251500 23012G20KT P6SM VCSH SCT015 BKN030 BKN060
     FM251800 26015G25KT P6SM SCT040
     FM260100 29010KT P6SM SKC
     FM260500 30005KT P6SM SKC=

USA.gov is the U.S. government's official web portal to all federal, state and local government web resources and services.